createdAt,value
2023-05-01T00:01:12.133Z,7.85
2023-05-01T00:04:14.968Z,8.60
2023-05-01T00:07:17.765Z,8.55
2023-05-01T00:10:20.441Z,7.97
2023-05-01T00:13:24.572Z,7.23
2023-05-01T00:16:27.142Z,8.57
2023-05-01T00:19:29.871Z,8.63
2023-05-01T00:22:32.547Z,8.18
2023-05-01T00:25:35.177Z,8.23
2023-05-01T00:28:37.694Z,8.57
2023-05-01T00:31:42.447Z,8.25
2023-05-01T00:34:47.929Z,8.50
2023-05-01T00:37:50.866Z,8.13
2023-05-01T00:40:53.548Z,7.90
2023-05-01T00:43:56.640Z,8.13
2023-05-01T00:47:01.073Z,7.30
2023-05-01T00:50:05.311Z,7.32
2023-05-01T00:53:07.971Z,7.47
2023-05-01T00:56:11.716Z,7.07
2023-05-01T00:59:14.760Z,7.07
2023-05-01T01:02:17.464Z,7.60
2023-05-01T01:05:21.992Z,7.38
2023-05-01T01:08:33.735Z,7.32
2023-05-01T01:11:51.837Z,7.47
2023-05-01T01:15:21.605Z,7.93
2023-05-01T01:18:33.305Z,7.80
2023-05-01T01:21:41.448Z,7.65
2023-05-01T01:24:59.606Z,6.78
2023-05-01T01:28:25.012Z,7.77
2023-05-01T01:31:33.462Z,7.63
2023-05-01T01:34:50.656Z,7.00
2023-05-01T01:38:09.774Z,7.03
2023-05-01T01:41:22.518Z,7.35
2023-05-01T01:44:34.911Z,7.20
2023-05-01T01:47:41.209Z,7.17
2023-05-01T01:50:45.683Z,6.90
2023-05-01T01:53:52.242Z,7.35
2023-05-01T01:56:55.861Z,7.18
2023-05-01T01:59:58.899Z,7.07
2023-05-01T02:03:02.469Z,7.17
2023-05-01T02:06:06.111Z,6.90
2023-05-01T02:09:10.025Z,7.43
2023-05-01T02:12:14.418Z,6.30
2023-05-01T02:15:19.193Z,6.73
2023-05-01T02:18:22.341Z,6.53
2023-05-01T02:21:26.581Z,6.60
2023-05-01T02:24:31.158Z,6.72
2023-05-01T02:27:39.020Z,6.80
2023-05-01T02:30:41.802Z,7.20
2023-05-01T02:33:44.423Z,7.63
2023-05-01T02:36:47.442Z,7.10
2023-05-01T02:39:50.913Z,6.68
2023-05-01T02:42:53.548Z,6.45
2023-05-01T02:45:59.164Z,5.80
2023-05-01T02:49:03.428Z,5.83
2023-05-01T02:52:06.276Z,5.82
2023-05-01T02:55:09.448Z,5.78
2023-05-01T02:58:16.662Z,6.35
2023-05-01T03:01:19.837Z,5.67
2023-05-01T03:04:22.776Z,6.00
2023-05-01T03:07:25.460Z,5.72
2023-05-01T03:10:28.082Z,6.38
2023-05-01T03:13:31.089Z,5.40
2023-05-01T03:16:34.143Z,5.67
2023-05-01T03:19:37.584Z,6.00
2023-05-01T03:22:40.274Z,6.18
2023-05-01T03:25:42.885Z,6.05
2023-05-01T03:28:45.987Z,6.45
2023-05-01T03:31:48.964Z,7.00
2023-05-01T03:34:51.795Z,6.30
2023-05-01T03:37:56.591Z,5.85
2023-05-01T03:41:19.277Z,6.57
2023-05-01T03:44:21.949Z,5.55
2023-05-01T03:47:25.012Z,5.67
2023-05-01T03:50:27.667Z,6.10
2023-05-01T03:53:30.283Z,6.50
2023-05-01T03:56:35.888Z,6.63
2023-05-01T03:59:40.312Z,5.88
2023-05-01T04:02:43.252Z,6.60
2023-05-01T04:05:49.869Z,6.30
2023-05-01T04:08:52.421Z,5.72
2023-05-01T04:11:55.054Z,7.30
2023-05-01T04:14:57.679Z,6.72
2023-05-01T04:18:00.877Z,6.93
2023-05-01T04:21:03.856Z,6.97
2023-05-01T04:24:06.543Z,7.70
2023-05-01T04:27:09.472Z,6.93
2023-05-01T04:30:12.075Z,7.10
2023-05-01T04:33:14.680Z,6.70
2023-05-01T04:36:17.370Z,6.33
2023-05-01T04:39:20.986Z,6.70
2023-05-01T04:42:23.578Z,5.90
2023-05-01T04:45:26.667Z,4.93
2023-05-01T04:48:30.014Z,5.20
2023-05-01T04:51:32.762Z,4.40
2023-05-01T04:54:35.399Z,4.28
2023-05-01T04:57:38.028Z,4.00
2023-05-01T05:00:42.847Z,4.15
2023-05-01T05:03:50.536Z,3.80
2023-05-01T05:06:53.539Z,3.67
2023-05-01T05:10:03.653Z,3.75
2023-05-01T05:13:06.791Z,3.90
2023-05-01T05:16:09.745Z,3.83
2023-05-01T05:19:12.418Z,3.83
2023-05-01T05:22:17.774Z,3.57
2023-05-01T05:25:40.255Z,3.40
2023-05-01T05:28:43.004Z,3.30
2023-05-01T05:31:45.675Z,3.20
2023-05-01T05:34:48.468Z,2.53
2023-05-01T05:37:51.447Z,3.10
2023-05-01T05:40:55.275Z,3.03
2023-05-01T05:43:58.537Z,2.72
2023-05-01T05:47:01.330Z,2.80
2023-05-01T05:50:10.121Z,3.03
2023-05-01T05:53:13.999Z,3.13
2023-05-01T05:56:18.465Z,2.80
2023-05-01T05:59:21.634Z,2.72
2023-05-01T06:02:24.408Z,2.50
2023-05-01T06:05:27.887Z,2.63
2023-05-01T06:08:30.506Z,2.60
2023-05-01T06:11:33.063Z,2.15
2023-05-01T06:14:35.967Z,2.38
2023-05-01T06:17:38.685Z,2.45
2023-05-01T06:20:41.444Z,2.30
2023-05-01T06:23:44.064Z,2.90
2023-05-01T06:27:02.368Z,2.00
2023-05-01T06:30:05.689Z,2.40
2023-05-01T06:33:10.735Z,2.80
2023-05-01T06:36:14.765Z,2.80
2023-05-01T06:39:17.307Z,2.60
2023-05-01T06:42:21.645Z,2.38
2023-05-01T06:45:24.225Z,2.35
2023-05-01T06:48:26.851Z,2.45
2023-05-01T06:51:30.459Z,2.80
2023-05-01T06:54:33.129Z,2.87
2023-05-01T06:57:35.812Z,2.55
2023-05-01T07:00:38.555Z,2.63
2023-05-01T07:03:41.353Z,2.55
2023-05-01T07:06:44.025Z,3.00
2023-05-01T07:09:46.557Z,2.13
2023-05-01T07:12:49.180Z,2.60
2023-05-01T07:15:53.823Z,2.17
2023-05-01T07:18:57.397Z,2.25
2023-05-01T07:21:59.968Z,2.53
2023-05-01T07:25:03.690Z,2.20
2023-05-01T07:28:08.295Z,2.50
2023-05-01T07:31:11.041Z,2.00
2023-05-01T07:34:14.181Z,2.50
2023-05-01T07:37:16.923Z,2.70
2023-05-01T07:40:19.590Z,2.40
2023-05-01T07:43:22.366Z,2.92
2023-05-01T07:46:25.175Z,2.22
2023-05-01T07:49:27.848Z,2.17
2023-05-01T07:52:31.797Z,2.13
2023-05-01T07:55:34.431Z,1.80
2023-05-01T07:58:37.783Z,1.95
2023-05-01T08:01:41.406Z,2.20
2023-05-01T08:04:44.067Z,2.28
2023-05-01T08:07:46.735Z,1.80
2023-05-01T08:10:49.326Z,2.27
2023-05-01T08:13:52.156Z,2.28
2023-05-01T08:16:55.646Z,1.80
2023-05-01T08:19:58.603Z,2.00
2023-05-01T08:23:01.677Z,2.00
2023-05-01T08:26:04.293Z,1.80
2023-05-01T08:29:06.903Z,1.88
2023-05-01T08:32:09.630Z,1.60
2023-05-01T08:35:12.291Z,1.50
2023-05-01T08:38:14.919Z,1.70
2023-05-01T08:41:21.552Z,1.40
2023-05-01T08:44:28.682Z,1.90
2023-05-01T08:47:31.333Z,1.90
2023-05-01T08:50:39.038Z,2.25
2023-05-01T08:53:42.179Z,1.93
2023-05-01T08:56:46.783Z,1.90
2023-05-01T08:59:51.207Z,1.92
2023-05-01T09:02:54.424Z,2.03
2023-05-01T09:05:57.549Z,1.70
2023-05-01T09:09:01.559Z,1.50
2023-05-01T09:12:22.150Z,1.50
2023-05-01T09:15:27.112Z,1.60
2023-05-01T09:18:31.385Z,2.13
2023-05-01T09:21:33.965Z,1.90
2023-05-01T09:24:36.845Z,1.60
2023-05-01T09:27:39.502Z,1.50
2023-05-01T09:30:42.378Z,2.10
2023-05-01T09:33:58.687Z,1.83
2023-05-01T09:37:01.321Z,1.67
2023-05-01T09:40:14.236Z,2.00
2023-05-01T09:43:35.118Z,1.40
2023-05-01T09:46:43.076Z,1.58
2023-05-01T09:49:48.321Z,1.95
2023-05-01T09:52:52.742Z,2.03
2023-05-01T09:56:02.303Z,1.73
2023-05-01T09:59:20.240Z,1.70
2023-05-01T10:02:32.516Z,1.88
2023-05-01T10:05:44.719Z,1.60
2023-05-01T10:08:50.776Z,1.70
2023-05-01T10:11:59.542Z,1.80
2023-05-01T10:15:17.379Z,1.60
2023-05-01T10:18:27.856Z,1.95
2023-05-01T10:21:32.939Z,2.20
2023-05-01T10:24:37.270Z,1.52
2023-05-01T10:27:43.312Z,1.57
2023-05-01T10:30:46.036Z,1.73
2023-05-01T10:33:48.749Z,1.67
2023-05-01T10:36:57.657Z,1.42
2023-05-01T10:40:00.449Z,1.85
2023-05-01T10:43:28.994Z,1.90
2023-05-01T10:46:31.967Z,1.90
2023-05-01T10:50:09.779Z,1.92
2023-05-01T10:53:12.472Z,1.92
2023-05-01T10:56:38.280Z,1.70
2023-05-01T10:59:59.252Z,1.50
2023-05-01T11:03:23.640Z,1.80
2023-05-01T11:06:26.759Z,1.95
2023-05-01T11:09:55.951Z,2.08
2023-05-01T11:12:58.892Z,1.95
2023-05-01T11:16:27.645Z,1.83
2023-05-01T11:19:36.413Z,2.33
2023-05-01T11:22:49.108Z,1.77
2023-05-01T11:26:03.761Z,2.13
2023-05-01T11:29:07.422Z,2.03
2023-05-01T11:32:10.988Z,1.90
2023-05-01T11:35:27.362Z,1.83
2023-05-01T11:38:29.974Z,2.03
2023-05-01T11:41:32.565Z,1.80
2023-05-01T11:44:35.216Z,1.77
2023-05-01T11:47:41.513Z,1.97
2023-05-01T11:50:44.239Z,2.10
2023-05-01T11:54:03.282Z,2.00
2023-05-01T11:57:05.840Z,2.25
2023-05-01T12:00:10.161Z,2.13
2023-05-01T12:03:15.701Z,2.60
2023-05-01T12:06:18.579Z,2.30
2023-05-01T12:09:23.125Z,2.20
2023-05-01T12:12:26.566Z,2.22
2023-05-01T12:15:29.372Z,2.20
2023-05-01T12:18:32.064Z,2.43
2023-05-01T12:21:36.768Z,2.10
2023-05-01T12:24:48.520Z,2.20
2023-05-01T12:27:51.085Z,2.25
2023-05-01T12:30:57.795Z,2.20
2023-05-01T12:34:02.695Z,1.50
2023-05-01T12:37:05.569Z,1.50
2023-05-01T12:40:13.891Z,2.17
2023-05-01T12:43:16.862Z,2.25
2023-05-01T12:46:19.469Z,2.10
2023-05-01T12:49:23.332Z,2.27
2023-05-01T12:52:27.813Z,1.77
2023-05-01T12:55:30.576Z,1.83
2023-05-01T12:58:39.229Z,1.85
2023-05-01T13:01:41.891Z,2.15
2023-05-01T13:04:45.331Z,1.97
2023-05-01T13:07:49.646Z,2.10
2023-05-01T13:10:55.284Z,2.33
2023-05-01T13:14:07.790Z,1.85
2023-05-01T13:17:11.887Z,1.70
2023-05-01T13:20:15.649Z,1.70
2023-05-01T13:23:18.392Z,1.47
2023-05-01T13:26:33.051Z,2.10
2023-05-01T13:29:36.440Z,1.40
2023-05-01T13:32:41.400Z,2.70
2023-05-01T13:35:44.026Z,2.60
2023-05-01T13:38:50.231Z,3.03
2023-05-01T13:41:53.516Z,2.28
2023-05-01T13:44:57.672Z,2.33
2023-05-01T13:48:00.331Z,2.90
2023-05-01T13:51:03.045Z,2.53
2023-05-01T13:54:07.651Z,2.60
2023-05-01T13:57:10.785Z,2.80
2023-05-01T14:00:17.888Z,2.20
2023-05-01T14:03:21.083Z,2.38
2023-05-01T14:06:26.461Z,2.33
2023-05-01T14:09:29.320Z,2.90
2023-05-01T14:12:32.767Z,2.30
2023-05-01T14:15:35.562Z,2.75
2023-05-01T14:18:45.922Z,2.20
2023-05-01T14:21:48.593Z,2.40
2023-05-01T14:24:51.273Z,2.17
2023-05-01T14:27:55.084Z,2.40
2023-05-01T14:30:57.833Z,2.70
2023-05-01T14:34:03.001Z,2.30
2023-05-01T14:37:05.859Z,2.53
2023-05-01T14:40:15.196Z,2.53
2023-05-01T14:43:19.568Z,2.63
2023-05-01T14:46:31.513Z,2.60
2023-05-01T14:49:34.473Z,2.28
2023-05-01T14:52:37.203Z,2.90
2023-05-01T14:55:41.492Z,2.60
2023-05-01T14:58:44.122Z,2.78
2023-05-01T15:01:46.741Z,2.55
2023-05-01T15:04:49.370Z,2.53
2023-05-01T15:07:57.811Z,2.90
2023-05-01T15:11:00.778Z,2.70
2023-05-01T15:14:04.249Z,2.30
2023-05-01T15:17:06.976Z,3.28
2023-05-01T15:20:10.751Z,3.25
2023-05-01T15:23:13.321Z,3.00
2023-05-01T15:26:16.965Z,3.37
2023-05-01T15:29:19.683Z,2.65
2023-05-01T15:32:22.417Z,2.60
2023-05-01T15:35:26.236Z,1.70
2023-05-01T15:38:28.841Z,2.33
2023-05-01T15:41:31.485Z,1.70
2023-05-01T15:44:34.068Z,2.20
2023-05-01T15:47:36.840Z,1.98
2023-05-01T15:50:39.694Z,2.50
2023-05-01T15:53:42.484Z,2.00
2023-05-01T15:56:45.539Z,2.03
2023-05-01T15:59:51.434Z,2.55
2023-05-01T16:02:54.073Z,2.45
2023-05-01T16:05:57.387Z,4.60
2023-05-01T16:09:00.288Z,4.40
2023-05-01T16:12:03.521Z,2.70
2023-05-01T16:15:06.565Z,3.65
2023-05-01T16:18:10.179Z,2.22
2023-05-01T16:21:19.178Z,2.72
2023-05-01T16:24:22.430Z,2.03
2023-05-01T16:27:25.063Z,2.20
2023-05-01T16:30:28.345Z,2.70
2023-05-01T16:33:32.427Z,2.08
2023-05-01T16:36:36.884Z,2.00
2023-05-01T16:39:39.451Z,3.00
2023-05-01T16:42:42.562Z,2.67
2023-05-01T16:45:46.737Z,2.60
2023-05-01T16:48:49.404Z,2.70
2023-05-01T16:51:56.748Z,2.45
2023-05-01T16:54:59.620Z,1.83
2023-05-01T16:58:02.238Z,2.10
2023-05-01T17:01:04.925Z,2.10
2023-05-01T17:04:08.262Z,1.73
2023-05-01T17:07:11.189Z,2.75
2023-05-01T17:10:13.740Z,2.17
2023-05-01T17:13:16.583Z,2.07
2023-05-01T17:16:19.732Z,1.77
2023-05-01T17:19:22.505Z,1.90
2023-05-01T17:22:26.659Z,2.28
2023-05-01T17:25:30.476Z,1.70
2023-05-01T17:28:33.119Z,1.80
2023-05-01T17:31:36.586Z,1.83
2023-05-01T17:34:39.245Z,1.48
2023-05-01T17:37:41.830Z,1.77
2023-05-01T17:40:44.883Z,1.90
2023-05-01T17:43:47.709Z,1.77
2023-05-01T17:46:50.322Z,1.45
2023-05-01T17:49:53.097Z,1.55
2023-05-01T17:52:56.748Z,1.60
2023-05-01T17:55:59.326Z,1.50
2023-05-01T17:59:01.986Z,2.10
2023-05-01T18:02:04.929Z,1.70
2023-05-01T18:05:08.033Z,2.08
2023-05-01T18:08:10.997Z,2.00
2023-05-01T18:11:13.675Z,2.40
2023-05-01T18:14:16.887Z,1.93
2023-05-01T18:17:22.381Z,2.00
2023-05-01T18:20:25.727Z,2.00
2023-05-01T18:23:28.447Z,2.65
2023-05-01T18:26:31.330Z,2.27
2023-05-01T18:29:33.926Z,2.20
2023-05-01T18:32:47.664Z,1.77
2023-05-01T18:35:51.782Z,2.00
2023-05-01T18:38:55.245Z,2.03
2023-05-01T18:41:57.873Z,2.47
2023-05-01T18:45:00.567Z,1.50
2023-05-01T18:48:03.914Z,2.33
2023-05-01T18:51:08.859Z,2.10
2023-05-01T18:54:14.075Z,2.45
2023-05-01T18:57:17.333Z,2.00
2023-05-01T19:00:21.602Z,2.57
2023-05-01T19:03:24.465Z,2.10
2023-05-01T19:06:27.600Z,1.95
2023-05-01T19:09:30.422Z,2.30
2023-05-01T19:12:33.078Z,1.63
2023-05-01T19:15:36.383Z,2.40
2023-05-01T19:18:39.257Z,1.83
2023-05-01T19:21:42.182Z,1.55
2023-05-01T19:24:44.997Z,1.77
2023-05-01T19:27:47.954Z,2.03
2023-05-01T19:30:50.860Z,1.70
2023-05-01T19:33:56.815Z,1.60
2023-05-01T19:37:02.066Z,1.48
2023-05-01T19:40:06.483Z,1.55
2023-05-01T19:43:09.345Z,1.70
2023-05-01T19:46:12.277Z,1.40
2023-05-01T19:49:15.091Z,1.83
2023-05-01T19:52:17.875Z,1.55
2023-05-01T19:55:20.673Z,1.80
2023-05-01T19:58:23.687Z,2.10
2023-05-01T20:01:26.480Z,1.60
2023-05-01T20:04:29.302Z,2.03
2023-05-01T20:07:32.164Z,1.77
2023-05-01T20:10:34.770Z,1.80
2023-05-01T20:13:37.457Z,1.67
2023-05-01T20:16:40.552Z,1.70
2023-05-01T20:19:43.349Z,2.10
2023-05-01T20:22:46.875Z,1.63
2023-05-01T20:25:51.898Z,2.33
2023-05-01T20:28:54.776Z,1.83
2023-05-01T20:31:59.192Z,2.10
2023-05-01T20:35:01.885Z,1.80
2023-05-01T20:38:07.300Z,2.78
2023-05-01T20:41:10.380Z,1.90
2023-05-01T20:44:13.008Z,1.73
2023-05-01T20:47:15.588Z,1.50
2023-05-01T20:50:18.252Z,1.45
2023-05-01T20:53:20.925Z,1.70
2023-05-01T20:56:23.967Z,1.90
2023-05-01T20:59:26.562Z,1.60
2023-05-01T21:02:29.397Z,2.17
2023-05-01T21:05:32.116Z,1.92
2023-05-01T21:08:34.814Z,1.80
2023-05-01T21:11:40.220Z,2.50
2023-05-01T21:14:42.849Z,1.70
2023-05-01T21:17:45.566Z,2.20
2023-05-01T21:20:48.961Z,1.70
2023-05-01T21:23:51.678Z,1.70
2023-05-01T21:26:54.844Z,1.92
2023-05-01T21:29:59.676Z,1.80
2023-05-01T21:33:05.834Z,1.60
2023-05-01T21:36:10.491Z,2.13
2023-05-01T21:39:13.091Z,2.33
2023-05-01T21:42:16.013Z,1.83
2023-05-01T21:45:20.284Z,2.03
2023-05-01T21:48:23.030Z,2.83
2023-05-01T21:51:29.744Z,2.08
2023-05-01T21:54:34.845Z,2.22
2023-05-01T21:57:38.904Z,2.20
2023-05-01T22:00:41.913Z,2.83
2023-05-01T22:03:46.536Z,1.77
2023-05-01T22:06:50.058Z,1.92
2023-05-01T22:09:52.895Z,2.35
2023-05-01T22:12:55.656Z,2.05
2023-05-01T22:15:58.218Z,1.83
2023-05-01T22:19:00.839Z,1.97
2023-05-01T22:22:03.529Z,2.33
2023-05-01T22:25:07.079Z,2.83
2023-05-01T22:28:09.797Z,2.50
2023-05-01T22:31:12.374Z,2.50
2023-05-01T22:34:15.003Z,2.73
2023-05-01T22:37:19.089Z,3.20
2023-05-01T22:40:21.869Z,3.08
2023-05-01T22:43:24.803Z,3.40
2023-05-01T22:46:27.445Z,3.93
2023-05-01T22:49:30.338Z,4.17
2023-05-01T22:52:32.981Z,3.90
2023-05-01T22:55:35.813Z,3.90
2023-05-01T22:58:38.681Z,3.90
2023-05-01T23:01:41.363Z,4.23
2023-05-01T23:04:44.337Z,4.80
2023-05-01T23:07:46.961Z,4.13
2023-05-01T23:10:49.591Z,4.30
2023-05-01T23:13:52.438Z,4.45
2023-05-01T23:16:55.236Z,4.73
2023-05-01T23:19:58.945Z,4.60
2023-05-01T23:23:05.366Z,4.00
2023-05-01T23:26:07.892Z,4.28
2023-05-01T23:29:11.710Z,4.30
2023-05-01T23:32:30.210Z,4.40
2023-05-01T23:35:32.857Z,3.97
2023-05-01T23:38:35.464Z,4.25
2023-05-01T23:41:38.160Z,4.45
2023-05-01T23:44:40.920Z,3.88
2023-05-01T23:47:43.563Z,4.73
2023-05-01T23:50:46.383Z,4.37
2023-05-01T23:53:49.138Z,4.30
2023-05-01T23:56:51.974Z,4.65
2023-05-01T23:59:54.604Z,4.57
